sensor_id;sensor_type;location;lat;lon;timestamp;pressure;altitude;pressure_sealevel;temperature;humidity
47742;BME280;33504;52.066;6.096;2022-12-18T00:02:28;102831.42;;;-2.33;46.75
47742;BME280;33504;52.066;6.096;2022-12-18T00:04:55;102819.39;;;-1.64;46.70
47742;BME280;33504;52.066;6.096;2022-12-18T00:07:32;102814.47;;;-2.07;46.54
47742;BME280;33504;52.066;6.096;2022-12-18T00:10:00;102812.21;;;-2.12;46.74
47742;BME280;33504;52.066;6.096;2022-12-18T00:12:37;102811.98;;;-2.67;47.19
47742;BME280;33504;52.066;6.096;2022-12-18T00:15:09;102809.17;;;-2.42;47.03
47742;BME280;33504;52.066;6.096;2022-12-18T00:17:42;102805.73;;;-2.95;47.45
47742;BME280;33504;52.066;6.096;2022-12-18T00:20:19;102805.02;;;-2.91;47.61
47742;BME280;33504;52.066;6.096;2022-12-18T00:22:51;102805.55;;;-2.76;47.61
47742;BME280;33504;52.066;6.096;2022-12-18T00:25:29;102801.33;;;-2.91;47.48
47742;BME280;33504;52.066;6.096;2022-12-18T00:27:56;102799.98;;;-2.90;47.62
47742;BME280;33504;52.066;6.096;2022-12-18T00:30:33;102799.55;;;-3.07;48.11
47742;BME280;33504;52.066;6.096;2022-12-18T00:33:10;102799.67;;;-3.63;48.29
47742;BME280;33504;52.066;6.096;2022-12-18T00:35:41;102802.72;;;-3.26;48.24
47742;BME280;33504;52.066;6.096;2022-12-18T00:38:19;102804.29;;;-3.19;47.83
47742;BME280;33504;52.066;6.096;2022-12-18T00:40:56;102794.90;;;-3.48;47.57
47742;BME280;33504;52.066;6.096;2022-12-18T00:43:28;102793.39;;;-3.17;47.67
47742;BME280;33504;52.066;6.096;2022-12-18T00:45:55;102793.01;;;-3.54;47.94
47742;BME280;33504;52.066;6.096;2022-12-18T00:48:32;102793.56;;;-3.82;48.00
47742;BME280;33504;52.066;6.096;2022-12-18T00:51:09;102790.04;;;-3.44;47.87
47742;BME280;33504;52.066;6.096;2022-12-18T00:53:41;102790.50;;;-3.20;47.58
47742;BME280;33504;52.066;6.096;2022-12-18T00:56:14;102799.89;;;-2.97;47.01
47742;BME280;33504;52.066;6.096;2022-12-18T00:58:46;102803.51;;;-2.92;46.90
47742;BME280;33504;52.066;6.096;2022-12-18T01:01:23;102803.63;;;-3.12;46.93
47742;BME280;33504;52.066;6.096;2022-12-18T01:04:01;102802.25;;;-2.94;46.92
47742;BME280;33504;52.066;6.096;2022-12-18T01:06:28;102802.60;;;-2.89;46.76
47742;BME280;33504;52.066;6.096;2022-12-18T01:09:02;102804.90;;;-3.17;46.70
47742;BME280;33504;52.066;6.096;2022-12-18T01:11:29;102805.79;;;-3.07;46.88
47742;BME280;33504;52.066;6.096;2022-12-18T01:14:05;102805.53;;;-3.55;47.54
47742;BME280;33504;52.066;6.096;2022-12-18T01:16:37;102801.85;;;-3.12;46.99
47742;BME280;33504;52.066;6.096;2022-12-18T01:19:05;102802.95;;;-3.02;46.70
47742;BME280;33504;52.066;6.096;2022-12-18T01:21:33;102799.01;;;-2.83;46.37
47742;BME280;33504;52.066;6.096;2022-12-18T01:24:10;102789.62;;;-3.20;46.62
47742;BME280;33504;52.066;6.096;2022-12-18T01:26:48;102776.03;;;-3.38;46.87
47742;BME280;33504;52.066;6.096;2022-12-18T01:29:25;102774.03;;;-3.52;46.94
47742;BME280;33504;52.066;6.096;2022-12-18T01:32:02;102775.33;;;-3.38;46.62
47742;BME280;33504;52.066;6.096;2022-12-18T01:34:35;102789.11;;;-3.09;46.28
47742;BME280;33504;52.066;6.096;2022-12-18T01:37:13;102795.50;;;-2.96;45.86
47742;BME280;33504;52.066;6.096;2022-12-18T01:39:40;102787.14;;;-3.10;45.72
47742;BME280;33504;52.066;6.096;2022-12-18T01:42:11;102788.57;;;-3.23;45.88
47742;BME280;33504;52.066;6.096;2022-12-18T01:44:56;102790.54;;;-2.82;45.41
47742;BME280;33504;52.066;6.096;2022-12-18T01:47:26;102797.12;;;-2.73;44.87
47742;BME280;33504;52.066;6.096;2022-12-18T01:50:07;102796.44;;;-2.68;44.77
47742;BME280;33504;52.066;6.096;2022-12-18T01:52:46;102793.41;;;-2.90;44.65
47742;BME280;33504;52.066;6.096;2022-12-18T01:55:26;102793.25;;;-3.11;44.62
47742;BME280;33504;52.066;6.096;2022-12-18T01:57:59;102783.78;;;-2.91;44.56
47742;BME280;33504;52.066;6.096;2022-12-18T02:00:32;102777.89;;;-2.73;44.46
47742;BME280;33504;52.066;6.096;2022-12-18T02:03:05;102779.18;;;-2.75;44.34
47742;BME280;33504;52.066;6.096;2022-12-18T02:05:38;102780.54;;;-2.92;44.42
47742;BME280;33504;52.066;6.096;2022-12-18T02:08:12;102792.12;;;-2.97;44.39
47742;BME280;33504;52.066;6.096;2022-12-18T02:10:56;102797.42;;;-2.93;44.31
47742;BME280;33504;52.066;6.096;2022-12-18T02:13:36;102804.81;;;-2.93;44.30
47742;BME280;33504;52.066;6.096;2022-12-18T02:16:13;102804.99;;;-3.12;44.21
47742;BME280;33504;52.066;6.096;2022-12-18T02:18:56;102799.68;;;-2.88;44.03
47742;BME280;33504;52.066;6.096;2022-12-18T02:21:40;102795.14;;;-2.85;43.91
47742;BME280;33504;52.066;6.096;2022-12-18T02:24:21;102794.61;;;-3.05;43.57
47742;BME280;33504;52.066;6.096;2022-12-18T02:27:06;102797.60;;;-2.83;42.99
47742;BME280;33504;52.066;6.096;2022-12-18T02:29:46;102794.04;;;-2.87;43.01
47742;BME280;33504;52.066;6.096;2022-12-18T02:32:20;102790.99;;;-2.88;42.75
47742;BME280;33504;52.066;6.096;2022-12-18T02:34:56;102791.02;;;-3.14;42.73
47742;BME280;33504;52.066;6.096;2022-12-18T02:37:27;102795.56;;;-2.95;42.83
47742;BME280;33504;52.066;6.096;2022-12-18T02:40:02;102795.72;;;-2.95;42.85
47742;BME280;33504;52.066;6.096;2022-12-18T02:42:30;102794.82;;;-2.99;42.87
47742;BME280;33504;52.066;6.096;2022-12-18T02:44:59;102798.51;;;-3.01;42.95
47742;BME280;33504;52.066;6.096;2022-12-18T02:47:35;102799.71;;;-3.22;42.88
47742;BME280;33504;52.066;6.096;2022-12-18T02:50:09;102799.35;;;-3.04;42.80
47742;BME280;33504;52.066;6.096;2022-12-18T02:52:49;102797.11;;;-3.05;42.83
47742;BME280;33504;52.066;6.096;2022-12-18T02:55:37;102793.29;;;-3.09;42.84
47742;BME280;33504;52.066;6.096;2022-12-18T02:58:25;102787.84;;;-3.12;42.81
47742;BME280;33504;52.066;6.096;2022-12-18T03:01:07;102785.64;;;-3.16;42.80
47742;BME280;33504;52.066;6.096;2022-12-18T03:03:54;102786.70;;;-3.19;42.74
47742;BME280;33504;52.066;6.096;2022-12-18T03:06:35;102789.03;;;-3.20;42.70
47742;BME280;33504;52.066;6.096;2022-12-18T03:09:10;102787.50;;;-3.22;42.57
47742;BME280;33504;52.066;6.096;2022-12-18T03:11:46;102780.72;;;-3.27;42.56
47742;BME280;33504;52.066;6.096;2022-12-18T03:14:26;102781.23;;;-3.54;42.54
47742;BME280;33504;52.066;6.096;2022-12-18T03:17:01;102783.55;;;-3.34;42.43
47742;BME280;33504;52.066;6.096;2022-12-18T03:19:32;102782.72;;;-3.36;42.42
47742;BME280;33504;52.066;6.096;2022-12-18T03:22:07;102775.35;;;-3.42;42.39
47742;BME280;33504;52.066;6.096;2022-12-18T03:24:45;102776.36;;;-3.45;42.43
47742;BME280;33504;52.066;6.096;2022-12-18T03:27:17;102775.78;;;-3.49;42.44
47742;BME280;33504;52.066;6.096;2022-12-18T03:29:51;102776.53;;;-3.51;42.39
47742;BME280;33504;52.066;6.096;2022-12-18T03:32:36;102769.06;;;-3.55;42.43
47742;BME280;33504;52.066;6.096;2022-12-18T03:35:18;102763.30;;;-3.57;42.56
47742;BME280;33504;52.066;6.096;2022-12-18T03:37:56;102750.33;;;-3.56;42.60
47742;BME280;33504;52.066;6.096;2022-12-18T03:40:39;102744.55;;;-3.60;42.48
47742;BME280;33504;52.066;6.096;2022-12-18T03:43:18;102740.02;;;-3.64;42.27
47742;BME280;33504;52.066;6.096;2022-12-18T03:45:52;102743.45;;;-3.69;42.33
47742;BME280;33504;52.066;6.096;2022-12-18T03:48:32;102743.38;;;-3.70;42.45
47742;BME280;33504;52.066;6.096;2022-12-18T03:51:17;102745.42;;;-3.47;42.47
47742;BME280;33504;52.066;6.096;2022-12-18T03:53:58;102741.28;;;-3.75;42.54
47742;BME280;33504;52.066;6.096;2022-12-18T03:56:40;102747.74;;;-3.75;42.47
47742;BME280;33504;52.066;6.096;2022-12-18T03:59:20;102749.83;;;-3.79;42.37
47742;BME280;33504;52.066;6.096;2022-12-18T04:01:55;102748.88;;;-3.82;42.26
47742;BME280;33504;52.066;6.096;2022-12-18T04:04:24;102745.82;;;-3.84;42.39
47742;BME280;33504;52.066;6.096;2022-12-18T04:06:58;102741.12;;;-3.83;42.41
47742;BME280;33504;52.066;6.096;2022-12-18T04:09:31;102737.53;;;-3.83;42.42
47742;BME280;33504;52.066;6.096;2022-12-18T04:12:01;102740.64;;;-3.88;42.31
47742;BME280;33504;52.066;6.096;2022-12-18T04:14:33;102741.28;;;-3.89;42.36
47742;BME280;33504;52.066;6.096;2022-12-18T04:17:01;102746.98;;;-3.89;42.35
47742;BME280;33504;52.066;6.096;2022-12-18T04:19:39;102748.55;;;-3.69;42.43
47742;BME280;33504;52.066;6.096;2022-12-18T04:22:16;102746.08;;;-4.00;42.39
47742;BME280;33504;52.066;6.096;2022-12-18T04:24:53;102744.11;;;-4.01;42.47
47742;BME280;33504;52.066;6.096;2022-12-18T04:27:30;102740.58;;;-4.02;42.42
47742;BME280;33504;52.066;6.096;2022-12-18T04:30:08;102738.23;;;-3.78;42.43
47742;BME280;33504;52.066;6.096;2022-12-18T04:32:40;102739.21;;;-3.77;42.45
47742;BME280;33504;52.066;6.096;2022-12-18T04:35:12;102737.43;;;-4.02;42.46
47742;BME280;33504;52.066;6.096;2022-12-18T04:37:45;102737.65;;;-4.02;42.43
47742;BME280;33504;52.066;6.096;2022-12-18T04:40:22;102736.40;;;-3.75;42.35
47742;BME280;33504;52.066;6.096;2022-12-18T04:42:54;102734.98;;;-3.77;42.23
47742;BME280;33504;52.066;6.096;2022-12-18T04:45:27;102728.55;;;-3.81;42.35
47742;BME280;33504;52.066;6.096;2022-12-18T04:47:54;102725.66;;;-4.08;42.29
47742;BME280;33504;52.066;6.096;2022-12-18T04:50:27;102725.92;;;-4.10;42.18
47742;BME280;33504;52.066;6.096;2022-12-18T04:52:55;102729.44;;;-3.85;42.21
47742;BME280;33504;52.066;6.096;2022-12-18T04:55:25;102730.84;;;-4.13;42.22
47742;BME280;33504;52.066;6.096;2022-12-18T04:58:02;102731.13;;;-4.16;42.15
47742;BME280;33504;52.066;6.096;2022-12-18T05:00:34;102729.47;;;-4.21;42.16
47742;BME280;33504;52.066;6.096;2022-12-18T05:03:11;102726.69;;;-3.73;42.12
47742;BME280;33504;52.066;6.096;2022-12-18T05:05:49;102723.91;;;-3.97;42.11
47742;BME280;33504;52.066;6.096;2022-12-18T05:08:16;102727.02;;;-3.79;42.12
47742;BME280;33504;52.066;6.096;2022-12-18T05:10:44;102731.84;;;-4.28;42.16
47742;BME280;33504;52.066;6.096;2022-12-18T05:13:11;102731.84;;;-4.01;42.07
47742;BME280;33504;52.066;6.096;2022-12-18T05:15:43;102733.89;;;-3.80;41.95
47742;BME280;33504;52.066;6.096;2022-12-18T05:18:22;102731.09;;;-4.33;41.87
47742;BME280;33504;52.066;6.096;2022-12-18T05:20:55;102737.67;;;-4.37;41.86
47742;BME280;33504;52.066;6.096;2022-12-18T05:23:32;102745.37;;;-4.43;41.87
47742;BME280;33504;52.066;6.096;2022-12-18T05:26:01;102757.86;;;-3.97;41.85
47742;BME280;33504;52.066;6.096;2022-12-18T05:28:39;102758.86;;;-4.18;41.91
47742;BME280;33504;52.066;6.096;2022-12-18T05:31:17;102767.34;;;-4.48;42.08
47742;BME280;33504;52.066;6.096;2022-12-18T05:33:49;102770.25;;;-4.00;42.00
47742;BME280;33504;52.066;6.096;2022-12-18T05:36:21;102778.54;;;-4.00;41.89
47742;BME280;33504;52.066;6.096;2022-12-18T05:38:58;102789.39;;;-4.00;41.75
47742;BME280;33504;52.066;6.096;2022-12-18T05:41:35;102795.72;;;-4.29;41.76
47742;BME280;33504;52.066;6.096;2022-12-18T05:44:12;102794.59;;;-4.33;41.82
47742;BME280;33504;52.066;6.096;2022-12-18T05:46:49;102794.32;;;-4.39;41.86
47742;BME280;33504;52.066;6.096;2022-12-18T05:49:27;102795.16;;;-4.42;41.85
47742;BME280;33504;52.066;6.096;2022-12-18T05:52:04;102795.39;;;-4.41;41.87
47742;BME280;33504;52.066;6.096;2022-12-18T05:54:41;102788.56;;;-4.41;41.81
47742;BME280;33504;52.066;6.096;2022-12-18T05:57:13;102785.66;;;-4.43;41.87
47742;BME280;33504;52.066;6.096;2022-12-18T05:59:40;102784.52;;;-4.21;41.96
47742;BME280;33504;52.066;6.096;2022-12-18T06:02:08;102779.62;;;-4.23;42.00
47742;BME280;33504;52.066;6.096;2022-12-18T06:04:41;102771.09;;;-4.25;42.00
47742;BME280;33504;52.066;6.096;2022-12-18T06:07:13;102761.76;;;-4.26;42.12
47742;BME280;33504;52.066;6.096;2022-12-18T06:09:50;102752.23;;;-4.47;42.11
47742;BME280;33504;52.066;6.096;2022-12-18T06:12:27;102748.09;;;-4.49;42.04
47742;BME280;33504;52.066;6.096;2022-12-18T06:15:00;102745.37;;;-4.51;42.08
47742;BME280;33504;52.066;6.096;2022-12-18T06:17:37;102743.11;;;-4.48;42.02
47742;BME280;33504;52.066;6.096;2022-12-18T06:20:15;102739.80;;;-4.27;41.97
47742;BME280;33504;52.066;6.096;2022-12-18T06:22:42;102738.11;;;-4.28;41.92
47742;BME280;33504;52.066;6.096;2022-12-18T06:25:10;102740.61;;;-4.49;41.80
47742;BME280;33504;52.066;6.096;2022-12-18T06:27:43;102739.40;;;-4.30;41.70
47742;BME280;33504;52.066;6.096;2022-12-18T06:30:20;102740.01;;;-4.55;41.65
47742;BME280;33504;52.066;6.096;2022-12-18T06:32:57;102743.04;;;-4.39;41.68
47742;BME280;33504;52.066;6.096;2022-12-18T06:35:24;102741.60;;;-4.42;41.64
47742;BME280;33504;52.066;6.096;2022-12-18T06:37:50;102735.50;;;-4.45;41.64
47742;BME280;33504;52.066;6.096;2022-12-18T06:40:18;102734.18;;;-4.69;41.61
47742;BME280;33504;52.066;6.096;2022-12-18T06:42:55;102734.70;;;-4.23;41.61
47742;BME280;33504;52.066;6.096;2022-12-18T06:45:22;102732.14;;;-4.73;41.59
47742;BME280;33504;52.066;6.096;2022-12-18T06:47:59;102731.13;;;-4.54;41.58
47742;BME280;33504;52.066;6.096;2022-12-18T06:50:31;102725.52;;;-4.57;41.64
47742;BME280;33504;52.066;6.096;2022-12-18T06:52:59;102721.11;;;-4.59;41.58
47742;BME280;33504;52.066;6.096;2022-12-18T06:55:32;102717.81;;;-4.64;41.58
47742;BME280;33504;52.066;6.096;2022-12-18T06:58:09;102718.66;;;-4.65;41.50
47742;BME280;33504;52.066;6.096;2022-12-18T07:00:37;102710.85;;;-4.67;41.52
47742;BME280;33504;52.066;6.096;2022-12-18T07:03:09;102706.92;;;-4.70;41.57
47742;BME280;33504;52.066;6.096;2022-12-18T07:05:41;102703.57;;;-4.68;41.56
47742;BME280;33504;52.066;6.096;2022-12-18T07:08:17;102701.27;;;-4.44;41.61
47742;BME280;33504;52.066;6.096;2022-12-18T07:10:45;102701.49;;;-4.71;41.64
47742;BME280;33504;52.066;6.096;2022-12-18T07:13:22;102699.42;;;-4.72;41.60
47742;BME280;33504;52.066;6.096;2022-12-18T07:16:03;102701.55;;;-4.48;41.62
47742;BME280;33504;52.066;6.096;2022-12-18T07:18:41;102701.73;;;-4.79;41.49
47742;BME280;33504;52.066;6.096;2022-12-18T07:21:11;102704.65;;;-4.80;41.54
47742;BME280;33504;52.066;6.096;2022-12-18T07:23:48;102703.77;;;-4.54;41.62
47742;BME280;33504;52.066;6.096;2022-12-18T07:26:26;102706.58;;;-5.04;41.70
47742;BME280;33504;52.066;6.096;2022-12-18T07:28:55;102709.52;;;-4.80;41.78
47742;BME280;33504;52.066;6.096;2022-12-18T07:31:33;102712.38;;;-4.76;41.87
47742;BME280;33504;52.066;6.096;2022-12-18T07:34:05;102711.10;;;-4.74;41.92
47742;BME280;33504;52.066;6.096;2022-12-18T07:36:42;102708.44;;;-4.69;41.88
47742;BME280;33504;52.066;6.096;2022-12-18T07:39:15;102709.75;;;-4.69;41.80
47742;BME280;33504;52.066;6.096;2022-12-18T07:41:42;102711.14;;;-4.70;41.75
47742;BME280;33504;52.066;6.096;2022-12-18T07:44:19;102707.55;;;-4.66;41.74
47742;BME280;33504;52.066;6.096;2022-12-18T07:46:51;102700.35;;;-4.66;41.78
47742;BME280;33504;52.066;6.096;2022-12-18T07:49:19;102698.31;;;-4.64;41.69
47742;BME280;33504;52.066;6.096;2022-12-18T07:51:46;102693.13;;;-4.62;41.74
47742;BME280;33504;52.066;6.096;2022-12-18T07:54:13;102687.78;;;-4.34;41.72
47742;BME280;33504;52.066;6.096;2022-12-18T07:56:51;102681.40;;;-4.59;41.67
47742;BME280;33504;52.066;6.096;2022-12-18T07:59:18;102677.25;;;-4.57;41.73
47742;BME280;33504;52.066;6.096;2022-12-18T08:01:56;102672.53;;;-4.52;41.78
47742;BME280;33504;52.066;6.096;2022-12-18T08:04:28;102669.91;;;-4.48;41.82
47742;BME280;33504;52.066;6.096;2022-12-18T08:07:01;102658.92;;;-4.42;41.83
47742;BME280;33504;52.066;6.096;2022-12-18T08:09:33;102653.98;;;-4.58;41.89
47742;BME280;33504;52.066;6.096;2022-12-18T08:12:06;102649.38;;;-4.29;41.92
47742;BME280;33504;52.066;6.096;2022-12-18T08:14:36;102648.42;;;-4.43;41.97
47742;BME280;33504;52.066;6.096;2022-12-18T08:17:13;102651.48;;;-4.35;41.96
47742;BME280;33504;52.066;6.096;2022-12-18T08:19:50;102646.67;;;-4.54;41.97
47742;BME280;33504;52.066;6.096;2022-12-18T08:22:28;102653.66;;;-3.98;42.01
47742;BME280;33504;52.066;6.096;2022-12-18T08:25:05;102653.46;;;-3.90;42.07
47742;BME280;33504;52.066;6.096;2022-12-18T08:27:38;102648.60;;;-3.80;42.12
47742;BME280;33504;52.066;6.096;2022-12-18T08:30:11;102653.09;;;-3.90;42.23
47742;BME280;33504;52.066;6.096;2022-12-18T08:32:44;102655.52;;;-4.03;42.48
47742;BME280;33504;52.066;6.096;2022-12-18T08:35:16;102653.82;;;-3.91;42.45
47742;BME280;33504;52.066;6.096;2022-12-18T08:37:46;102646.58;;;-3.79;42.60
47742;BME280;33504;52.066;6.096;2022-12-18T08:40:19;102641.69;;;-3.64;42.74
47742;BME280;33504;52.066;6.096;2022-12-18T08:42:56;102639.42;;;-3.46;42.80
47742;BME280;33504;52.066;6.096;2022-12-18T08:45:28;102640.75;;;-3.41;43.35
47742;BME280;33504;52.066;6.096;2022-12-18T08:48:05;102645.04;;;-3.32;43.86
47742;BME280;33504;52.066;6.096;2022-12-18T08:50:42;102645.58;;;-3.59;45.26
47742;BME280;33504;52.066;6.096;2022-12-18T08:53:14;102648.66;;;-3.85;46.37
47742;BME280;33504;52.066;6.096;2022-12-18T08:55:46;102653.99;;;-3.82;46.63
47742;BME280;33504;52.066;6.096;2022-12-18T08:58:19;102657.10;;;-3.64;46.76
47742;BME280;33504;52.066;6.096;2022-12-18T09:00:46;102663.11;;;-3.32;46.34
47742;BME280;33504;52.066;6.096;2022-12-18T09:03:14;102660.83;;;-3.97;47.26
47742;BME280;33504;52.066;6.096;2022-12-18T09:05:43;102655.07;;;-3.16;46.59
47742;BME280;33504;52.066;6.096;2022-12-18T09:08:22;102649.27;;;-3.26;46.59
47742;BME280;33504;52.066;6.096;2022-12-18T09:10:55;102651.45;;;-2.70;46.15
47742;BME280;33504;52.066;6.096;2022-12-18T09:13:33;102653.19;;;-2.58;46.05
47742;BME280;33504;52.066;6.096;2022-12-18T09:16:10;102647.32;;;-2.78;45.71
47742;BME280;33504;52.066;6.096;2022-12-18T09:18:43;102644.03;;;-2.64;46.07
47742;BME280;33504;52.066;6.096;2022-12-18T09:21:17;102644.42;;;-2.37;46.04
47742;BME280;33504;52.066;6.096;2022-12-18T09:23:49;102648.80;;;-2.28;45.59
47742;BME280;33504;52.066;6.096;2022-12-18T09:26:22;102648.40;;;-2.36;45.78
47742;BME280;33504;52.066;6.096;2022-12-18T09:28:55;102642.47;;;-2.18;45.55
47742;BME280;33504;52.066;6.096;2022-12-18T09:31:27;102626.72;;;-2.08;45.22
47742;BME280;33504;52.066;6.096;2022-12-18T09:34:04;102622.65;;;-2.53;45.56
47742;BME280;33504;52.066;6.096;2022-12-18T09:36:37;102636.33;;;-1.68;45.11
47742;BME280;33504;52.066;6.096;2022-12-18T09:39:10;102640.58;;;-1.89;44.81
47742;BME280;33504;52.066;6.096;2022-12-18T09:41:50;102639.42;;;-1.67;44.34
47742;BME280;33504;52.066;6.096;2022-12-18T09:44:25;102633.73;;;-1.52;44.35
47742;BME280;33504;52.066;6.096;2022-12-18T09:47:09;102639.12;;;-1.32;43.83
47742;BME280;33504;52.066;6.096;2022-12-18T09:49:42;102639.51;;;-1.35;43.86
47742;BME280;33504;52.066;6.096;2022-12-18T09:52:23;102638.19;;;-1.69;44.25
47742;BME280;33504;52.066;6.096;2022-12-18T09:55:08;102626.55;;;-1.28;44.18
47742;BME280;33504;52.066;6.096;2022-12-18T09:57:45;102618.27;;;-1.40;44.25
47742;BME280;33504;52.066;6.096;2022-12-18T10:00:26;102620.22;;;-1.08;44.04
47742;BME280;33504;52.066;6.096;2022-12-18T10:03:08;102618.59;;;-1.05;43.80
47742;BME280;33504;52.066;6.096;2022-12-18T10:05:55;102618.96;;;-1.25;43.80
47742;BME280;33504;52.066;6.096;2022-12-18T10:08:43;102613.31;;;-1.14;43.96
47742;BME280;33504;52.066;6.096;2022-12-18T10:11:32;102605.78;;;-1.22;43.79
47742;BME280;33504;52.066;6.096;2022-12-18T10:14:16;102596.46;;;-0.94;43.83
47742;BME280;33504;52.066;6.096;2022-12-18T10:16:59;102581.68;;;-0.83;43.56
47742;BME280;33504;52.066;6.096;2022-12-18T10:19:43;102574.29;;;-0.87;43.59
47742;BME280;33504;52.066;6.096;2022-12-18T10:22:31;102567.68;;;-0.54;43.66
47742;BME280;33504;52.066;6.096;2022-12-18T10:25:21;102570.70;;;-1.24;43.26
47742;BME280;33504;52.066;6.096;2022-12-18T10:27:58;102577.72;;;-0.95;43.81
47742;BME280;33504;52.066;6.096;2022-12-18T10:30:27;102573.08;;;-0.57;43.14
47742;BME280;33504;52.066;6.096;2022-12-18T10:33:05;102565.77;;;-0.80;43.01
47742;BME280;33504;52.066;6.096;2022-12-18T10:35:40;102570.37;;;-0.45;42.50
47742;BME280;33504;52.066;6.096;2022-12-18T10:38:26;102566.51;;;-0.50;42.90
47742;BME280;33504;52.066;6.096;2022-12-18T10:41:05;102556.81;;;-0.33;42.69
47742;BME280;33504;52.066;6.096;2022-12-18T10:43:39;102549.38;;;-0.22;42.33
47742;BME280;33504;52.066;6.096;2022-12-18T10:46:16;102534.05;;;-0.66;42.60
47742;BME280;33504;52.066;6.096;2022-12-18T10:48:55;102523.00;;;-0.34;41.99
47742;BME280;33504;52.066;6.096;2022-12-18T10:51:30;102527.34;;;-0.61;43.11
47742;BME280;33504;52.066;6.096;2022-12-18T10:54:02;102525.71;;;-0.51;42.35
47742;BME280;33504;52.066;6.096;2022-12-18T10:56:42;102518.34;;;-0.28;42.02
47742;BME280;33504;52.066;6.096;2022-12-18T10:59:15;102516.86;;;-0.25;42.32
47742;BME280;33504;52.066;6.096;2022-12-18T11:01:55;102525.76;;;-0.37;42.43
47742;BME280;33504;52.066;6.096;2022-12-18T11:04:34;102523.17;;;-0.60;42.15
47742;BME280;33504;52.066;6.096;2022-12-18T11:07:11;102522.91;;;-0.56;42.60
47742;BME280;33504;52.066;6.096;2022-12-18T11:09:59;102524.19;;;-0.04;42.18
47742;BME280;33504;52.066;6.096;2022-12-18T11:12:37;102531.13;;;-0.52;42.30
47742;BME280;33504;52.066;6.096;2022-12-18T11:15:13;102529.46;;;-0.57;42.20
47742;BME280;33504;52.066;6.096;2022-12-18T11:17:41;102523.96;;;-0.14;42.03
47742;BME280;33504;52.066;6.096;2022-12-18T11:20:29;102517.81;;;-0.05;42.01
47742;BME280;33504;52.066;6.096;2022-12-18T11:23:11;102518.70;;;-0.05;41.61
47742;BME280;33504;52.066;6.096;2022-12-18T11:25:52;102519.43;;;0.01;41.26
47742;BME280;33504;52.066;6.096;2022-12-18T11:28:37;102517.74;;;-0.01;42.00
47742;BME280;33504;52.066;6.096;2022-12-18T11:31:19;102507.53;;;-0.09;41.75
47742;BME280;33504;52.066;6.096;2022-12-18T11:33:57;102494.68;;;0.08;41.71
47742;BME280;33504;52.066;6.096;2022-12-18T11:36:36;102490.27;;;0.47;41.56
47742;BME280;33504;52.066;6.096;2022-12-18T11:39:18;102484.25;;;0.33;41.51
47742;BME280;33504;52.066;6.096;2022-12-18T11:42:02;102477.43;;;0.42;41.24
47742;BME280;33504;52.066;6.096;2022-12-18T11:44:46;102474.05;;;0.41;41.12
47742;BME280;33504;52.066;6.096;2022-12-18T11:47:23;102476.60;;;0.74;41.04
47742;BME280;33504;52.066;6.096;2022-12-18T11:49:59;102482.92;;;0.75;40.83
47742;BME280;33504;52.066;6.096;2022-12-18T11:52:40;102485.92;;;0.62;40.96
47742;BME280;33504;52.066;6.096;2022-12-18T11:55:15;102478.31;;;0.46;41.00
47742;BME280;33504;52.066;6.096;2022-12-18T11:57:57;102474.76;;;1.16;40.90
47742;BME280;33504;52.066;6.096;2022-12-18T12:00:38;102470.46;;;0.93;40.60
47742;BME280;33504;52.066;6.096;2022-12-18T12:03:23;102465.70;;;0.86;41.12
47742;BME280;33504;52.066;6.096;2022-12-18T12:06:07;102463.26;;;0.19;41.04
47742;BME280;33504;52.066;6.096;2022-12-18T12:08:55;102452.63;;;1.17;40.84
47742;BME280;33504;52.066;6.096;2022-12-18T12:11:43;102441.33;;;0.61;40.92
47742;BME280;33504;52.066;6.096;2022-12-18T12:14:33;102429.08;;;0.94;40.57
47742;BME280;33504;52.066;6.096;2022-12-18T12:17:19;102424.33;;;1.01;40.44
47742;BME280;33504;52.066;6.096;2022-12-18T12:20:06;102422.11;;;0.98;40.23
47742;BME280;33504;52.066;6.096;2022-12-18T12:22:52;102420.71;;;1.10;40.17
47742;BME280;33504;52.066;6.096;2022-12-18T12:25:36;102415.83;;;1.53;39.89
47742;BME280;33504;52.066;6.096;2022-12-18T12:28:20;102412.37;;;0.53;40.37
47742;BME280;33504;52.066;6.096;2022-12-18T12:31:03;102411.87;;;0.91;40.45
47742;BME280;33504;52.066;6.096;2022-12-18T12:33:49;102420.51;;;0.55;40.35
47742;BME280;33504;52.066;6.096;2022-12-18T12:36:25;102416.89;;;0.95;40.04
47742;BME280;33504;52.066;6.096;2022-12-18T12:39:11;102419.73;;;0.69;39.86
47742;BME280;33504;52.066;6.096;2022-12-18T12:41:41;102410.19;;;0.93;39.87
47742;BME280;33504;52.066;6.096;2022-12-18T12:44:20;102404.14;;;1.04;40.03
47742;BME280;33504;52.066;6.096;2022-12-18T12:46:55;102404.84;;;0.79;39.75
47742;BME280;33504;52.066;6.096;2022-12-18T12:49:31;102400.09;;;1.03;39.80
47742;BME280;33504;52.066;6.096;2022-12-18T12:52:06;102397.91;;;0.90;39.64
47742;BME280;33504;52.066;6.096;2022-12-18T12:54:40;102391.62;;;1.25;39.90
47742;BME280;33504;52.066;6.096;2022-12-18T12:57:12;102389.29;;;1.51;39.62
47742;BME280;33504;52.066;6.096;2022-12-18T12:59:57;102384.57;;;1.10;39.82
47742;BME280;33504;52.066;6.096;2022-12-18T13:02:42;102379.42;;;1.04;40.09
47742;BME280;33504;52.066;6.096;2022-12-18T13:05:28;102378.03;;;1.40;40.25
47742;BME280;33504;52.066;6.096;2022-12-18T13:08:03;102375.78;;;1.35;39.86
47742;BME280;33504;52.066;6.096;2022-12-18T13:10:37;102370.08;;;1.38;39.29
47742;BME280;33504;52.066;6.096;2022-12-18T13:13:10;102366.65;;;1.03;39.44
47742;BME280;33504;52.066;6.096;2022-12-18T13:15:39;102362.09;;;0.88;39.72
47742;BME280;33504;52.066;6.096;2022-12-18T13:18:19;102357.79;;;0.67;40.02
47742;BME280;33504;52.066;6.096;2022-12-18T13:20:49;102354.53;;;0.92;40.36
47742;BME280;33504;52.066;6.096;2022-12-18T13:23:40;102350.19;;;0.92;39.94
47742;BME280;33504;52.066;6.096;2022-12-18T13:26:50;102348.29;;;1.90;39.66
47742;BME280;33504;52.066;6.096;2022-12-18T13:29:54;102345.38;;;2.18;39.07
47742;BME280;33504;52.066;6.096;2022-12-18T13:32:27;102351.13;;;1.19;39.29
47742;BME280;33504;52.066;6.096;2022-12-18T13:35:51;102346.54;;;1.56;39.54
47742;BME280;33504;52.066;6.096;2022-12-18T13:38:21;102346.71;;;0.90;39.56
47742;BME280;33504;52.066;6.096;2022-12-18T13:40:55;102344.02;;;0.92;39.65